createdAt,value
2024-04-08T00:00:29.520Z,83.64
2024-04-08T00:01:29.549Z,83.64
2024-04-08T00:02:29.558Z,83.33
2024-04-08T00:03:29.773Z,82.93
2024-04-08T00:04:29.466Z,82.53
2024-04-08T00:05:29.486Z,83.13
2024-04-08T00:06:29.451Z,83.37
2024-04-08T00:07:29.438Z,84.04
2024-04-08T00:08:29.454Z,83.68
2024-04-08T00:09:29.393Z,83.33
2024-04-08T00:10:29.414Z,83.64
2024-04-08T00:11:29.473Z,83.68
2024-04-08T00:12:29.422Z,83.74
2024-04-08T00:13:29.349Z,83.47
2024-04-08T00:14:29.368Z,83.27
2024-04-08T00:15:29.812Z,82.76
2024-04-08T00:16:29.298Z,82.67
2024-04-08T00:17:29.370Z,82.97
2024-04-08T00:18:29.276Z,83.68
2024-04-08T00:19:29.255Z,83.88
2024-04-08T00:20:29.275Z,83.68
2024-04-08T00:21:29.231Z,83.47
2024-04-08T00:22:29.221Z,84.02
2024-04-08T00:23:29.228Z,84.12
2024-04-08T00:24:29.191Z,83.92
2024-04-08T00:25:29.186Z,84.42
2024-04-08T00:26:29.207Z,85.44
2024-04-08T00:27:29.161Z,85.13
2024-04-08T00:28:29.158Z,85.03
2024-04-08T00:29:29.180Z,84.53
2024-04-08T00:30:29.119Z,84.77
2024-04-08T00:31:29.096Z,84.77
2024-04-08T00:32:29.116Z,85.58
2024-04-08T00:33:29.087Z,86.59
2024-04-08T00:34:29.057Z,86.29
2024-04-08T00:35:29.057Z,86.08
2024-04-08T00:36:29.041Z,86.19
2024-04-08T00:37:29.013Z,85.88
2024-04-08T00:38:29.019Z,86.08
2024-04-08T00:39:28.986Z,86.49
2024-04-08T00:40:28.980Z,86.59
2024-04-08T00:41:28.988Z,86.69
2024-04-08T00:42:28.962Z,86.39
2024-04-08T00:43:28.932Z,85.68
2024-04-08T00:44:28.938Z,85.48
2024-04-08T00:45:28.927Z,86.08
2024-04-08T00:46:28.899Z,85.88
2024-04-08T00:47:28.919Z,85.78
2024-04-08T00:48:28.895Z,85.99
2024-04-08T00:49:28.852Z,86.29
2024-04-08T00:50:28.865Z,86.49
2024-04-08T00:51:28.823Z,87.30
2024-04-08T00:52:28.826Z,87.54
2024-04-08T00:53:28.831Z,87.71
2024-04-08T00:54:28.783Z,87.20
2024-04-08T00:55:28.767Z,86.90
2024-04-08T00:56:28.767Z,86.69
2024-04-08T00:57:28.743Z,85.99
2024-04-08T00:58:28.879Z,85.68
2024-04-08T00:59:28.734Z,86.19
2024-04-08T01:00:28.700Z,86.90
2024-04-08T01:01:28.726Z,86.73
2024-04-08T01:02:28.680Z,86.90
2024-04-08T01:03:28.661Z,86.19
2024-04-08T01:04:28.646Z,86.79
2024-04-08T01:05:28.655Z,87.00
2024-04-08T01:06:28.620Z,86.63
2024-04-08T01:07:28.603Z,86.19
2024-04-08T01:08:28.618Z,86.33
2024-04-08T01:09:28.582Z,86.39
2024-04-08T01:10:28.566Z,88.01
2024-04-08T01:11:28.549Z,88.72
2024-04-08T01:12:28.536Z,87.85
2024-04-08T01:13:28.625Z,87.51
2024-04-08T01:14:28.720Z,86.83
2024-04-08T01:15:28.511Z,86.59
2024-04-08T01:16:28.483Z,86.83
2024-04-08T01:17:28.502Z,86.83
2024-04-08T01:18:28.452Z,87.54
2024-04-08T01:19:28.459Z,87.30
2024-04-08T01:20:28.444Z,87.40
2024-04-08T01:21:28.412Z,87.60
2024-04-08T01:22:28.400Z,86.90
2024-04-08T01:23:28.396Z,86.63
2024-04-08T01:24:28.371Z,86.90
2024-04-08T01:25:28.362Z,87.34
2024-04-08T01:26:28.407Z,88.25
2024-04-08T01:27:28.328Z,88.05
2024-04-08T01:28:28.323Z,88.35
2024-04-08T01:29:28.330Z,88.35
2024-04-08T01:30:28.308Z,87.74
2024-04-08T01:31:28.276Z,88.35
2024-04-08T01:32:28.278Z,88.86
2024-04-08T01:33:28.268Z,89.67
2024-04-08T01:34:28.235Z,90.18
2024-04-08T01:35:28.243Z,90.18
2024-04-08T01:36:28.220Z,90.18
2024-04-08T01:37:28.194Z,89.87
2024-04-08T01:38:28.177Z,89.57
2024-04-08T01:39:28.169Z,89.06
2024-04-08T01:40:28.174Z,89.47
2024-04-08T01:41:28.232Z,89.57
2024-04-08T01:42:28.130Z,89.37
2024-04-08T01:43:28.119Z,89.57
2024-04-08T01:44:28.132Z,90.69
2024-04-08T01:45:28.101Z,90.99
2024-04-08T01:46:28.077Z,90.99
2024-04-08T01:47:28.124Z,90.89
2024-04-08T01:48:28.043Z,90.69
2024-04-08T01:49:28.056Z,90.69
2024-04-08T01:50:28.063Z,91.44
2024-04-08T01:51:28.001Z,91.80
2024-04-08T01:52:27.987Z,91.30
2024-04-08T01:53:28.060Z,90.99
2024-04-08T01:54:27.972Z,90.89
2024-04-08T01:55:27.945Z,90.69
2024-04-08T01:56:27.955Z,90.69
2024-04-08T01:57:27.920Z,90.28
2024-04-08T01:58:27.908Z,90.69
2024-04-08T01:59:27.899Z,90.79
2024-04-08T02:00:27.882Z,91.30
2024-04-08T02:01:27.862Z,91.03
2024-04-08T02:02:27.873Z,91.13
2024-04-08T02:03:27.838Z,91.54
2024-04-08T02:04:27.822Z,91.64
2024-04-08T02:05:27.868Z,91.74
2024-04-08T02:06:27.809Z,92.25
2024-04-08T02:07:27.781Z,92.45
2024-04-08T02:08:27.821Z,92.55
2024-04-08T02:09:27.755Z,92.86
2024-04-08T02:10:27.741Z,92.45
2024-04-08T02:11:27.843Z,92.14
2024-04-08T02:12:27.713Z,92.05
2024-04-08T02:13:27.699Z,91.24
2024-04-08T02:14:27.694Z,90.93
2024-04-08T02:15:27.666Z,91.54
2024-04-08T02:16:27.664Z,91.50
2024-04-08T02:17:27.680Z,91.64
2024-04-08T02:18:27.629Z,90.93
2024-04-08T02:19:27.619Z,91.54
2024-04-08T02:20:27.611Z,91.74
2024-04-08T02:21:27.602Z,92.45
2024-04-08T02:22:27.578Z,92.45
2024-04-08T02:23:27.564Z,92.05
2024-04-08T02:24:27.548Z,92.14
2024-04-08T02:25:27.533Z,92.76
2024-04-08T02:26:27.519Z,93.16
2024-04-08T02:27:27.506Z,93.16
2024-04-08T02:28:27.494Z,93.26
2024-04-08T02:29:27.479Z,93.37
2024-04-08T02:30:27.465Z,93.91
2024-04-08T02:31:27.451Z,93.97
2024-04-08T02:32:27.442Z,94.42
2024-04-08T02:33:27.426Z,93.61
2024-04-08T02:34:28.110Z,93.00
2024-04-08T02:35:27.404Z,92.40
2024-04-08T02:36:27.937Z,93.10
2024-04-08T02:37:27.393Z,93.71
2024-04-08T02:38:27.363Z,93.30
2024-04-08T02:39:27.342Z,92.60
2024-04-08T02:40:27.329Z,92.49
2024-04-08T02:41:27.309Z,92.80
2024-04-08T02:42:27.299Z,93.76
2024-04-08T02:43:27.290Z,93.41
2024-04-08T02:44:27.279Z,93.35
2024-04-08T02:45:27.260Z,94.57
2024-04-08T02:46:27.255Z,94.06
2024-04-08T02:47:27.267Z,93.35
2024-04-08T02:48:27.220Z,93.76
2024-04-08T02:49:27.204Z,92.64
2024-04-08T02:50:27.199Z,92.44
2024-04-08T02:51:27.183Z,92.74
2024-04-08T02:52:27.164Z,92.33
2024-04-08T02:53:27.166Z,92.54
2024-04-08T02:54:27.149Z,92.64
2024-04-08T02:55:27.138Z,93.80
2024-04-08T02:56:27.111Z,93.55
2024-04-08T02:57:27.096Z,94.00
2024-04-08T02:58:27.090Z,93.49
2024-04-08T02:59:27.076Z,93.60
2024-04-08T03:00:27.064Z,93.90
2024-04-08T03:01:27.049Z,94.10
2024-04-08T03:02:27.031Z,94.41
2024-04-08T03:03:27.017Z,94.92
2024-04-08T03:04:27.004Z,95.42
2024-04-08T03:05:26.993Z,95.73
2024-04-08T03:06:26.973Z,94.82
2024-04-08T03:07:26.964Z,94.00
2024-04-08T03:08:27.104Z,94.00
2024-04-08T03:09:26.958Z,94.41
2024-04-08T03:10:26.922Z,95.78
2024-04-08T03:11:26.919Z,96.59
2024-04-08T03:12:26.897Z,96.03
2024-04-08T03:13:27.133Z,95.78
2024-04-08T03:14:26.882Z,95.37
2024-04-08T03:15:26.856Z,95.94
2024-04-08T03:16:26.842Z,95.78
2024-04-08T03:17:26.836Z,95.17
2024-04-08T03:18:26.816Z,95.37
2024-04-08T03:19:26.799Z,95.67
2024-04-08T03:20:26.788Z,96.89
2024-04-08T03:21:26.791Z,97.60
2024-04-08T03:22:26.764Z,96.89
2024-04-08T03:23:26.748Z,97.20
2024-04-08T03:24:26.731Z,98.21
2024-04-08T03:25:26.736Z,97.50
2024-04-08T03:26:26.707Z,96.89
2024-04-08T03:27:26.694Z,97.50
2024-04-08T03:28:26.692Z,97.50
2024-04-08T03:29:26.675Z,96.89
2024-04-08T03:30:26.652Z,96.48
2024-04-08T03:31:26.638Z,96.99
2024-04-08T03:32:26.626Z,98.01
2024-04-08T03:33:26.715Z,97.71
2024-04-08T03:34:26.601Z,97.60
2024-04-08T03:35:26.589Z,97.50
2024-04-08T03:36:26.581Z,98.01
2024-04-08T03:37:26.598Z,98.01
2024-04-08T03:38:26.547Z,98.01
2024-04-08T03:39:26.534Z,97.44
2024-04-08T03:40:26.523Z,97.80
2024-04-08T03:41:26.526Z,98.32
2024-04-08T03:42:26.490Z,97.75
2024-04-08T03:43:26.476Z,97.96
2024-04-08T03:44:26.464Z,98.26
2024-04-08T03:45:26.451Z,98.05
2024-04-08T03:46:26.435Z,97.96
2024-04-08T03:47:26.423Z,98.26
2024-04-08T03:48:26.412Z,98.66
2024-04-08T03:49:26.397Z,98.77
2024-04-08T03:50:26.386Z,98.66
2024-04-08T03:51:28.303Z,99.11
2024-04-08T03:52:26.358Z,99.42
2024-04-08T03:53:26.358Z,99.93
2024-04-08T03:54:26.333Z,99.99
2024-04-08T03:55:26.361Z,99.93
2024-04-08T03:56:26.300Z,99.99
2024-04-08T03:57:26.297Z,99.99
2024-04-08T03:58:26.505Z,99.99
2024-04-08T03:59:26.258Z,99.99
2024-04-08T04:00:26.509Z,99.99
2024-04-08T04:01:26.228Z,99.99
2024-04-08T04:02:26.224Z,99.99
2024-04-08T04:03:26.202Z,99.99
2024-04-08T04:04:26.191Z,99.99
2024-04-08T04:05:26.173Z,99.99
2024-04-08T04:06:26.171Z,99.99
2024-04-08T04:07:26.152Z,99.99
2024-04-08T04:08:26.139Z,99.99
2024-04-08T04:09:26.126Z,99.99
2024-04-08T04:10:26.112Z,99.99
2024-04-08T04:11:26.101Z,99.99
2024-04-08T04:12:26.082Z,99.99
2024-04-08T04:13:26.078Z,99.99
2024-04-08T04:14:26.085Z,99.99
2024-04-08T04:15:26.040Z,99.99
2024-04-08T04:16:26.056Z,99.99
2024-04-08T04:17:26.086Z,99.99
2024-04-08T04:18:26.001Z,99.99
2024-04-08T04:19:25.984Z,99.99
2024-04-08T04:20:25.968Z,99.99
2024-04-08T04:21:25.958Z,99.99
2024-04-08T04:22:25.946Z,99.99
2024-04-08T04:23:25.927Z,99.99
2024-04-08T04:24:25.922Z,99.99
2024-04-08T04:25:25.910Z,99.99
2024-04-08T04:26:25.892Z,99.99
2024-04-08T04:27:25.878Z,99.99
2024-04-08T04:28:25.863Z,99.99
2024-04-08T04:29:26.116Z,99.99
2024-04-08T04:30:25.841Z,99.99
2024-04-08T04:31:25.819Z,99.99
2024-04-08T04:32:25.811Z,99.99
2024-04-08T04:33:25.795Z,99.99
2024-04-08T04:34:26.139Z,99.99
2024-04-08T04:35:25.768Z,99.99
2024-04-08T04:36:25.763Z,99.99
2024-04-08T04:37:25.741Z,99.99
2024-04-08T04:38:25.741Z,99.99
2024-04-08T04:39:25.730Z,99.99
2024-04-08T04:40:25.700Z,99.99
2024-04-08T04:41:25.696Z,99.99
2024-04-08T04:42:25.692Z,99.99
2024-04-08T04:43:25.659Z,99.99
2024-04-08T04:44:25.645Z,99.99
2024-04-08T04:45:25.666Z,99.99
2024-04-08T04:46:25.632Z,99.99
2024-04-08T04:47:25.637Z,99.99
2024-04-08T04:48:25.594Z,99.99
2024-04-08T04:49:25.575Z,99.99
2024-04-08T04:50:25.562Z,99.99
2024-04-08T04:51:25.593Z,99.99
2024-04-08T04:52:25.535Z,99.99
2024-04-08T04:53:25.522Z,99.99
2024-04-08T04:54:27.574Z,99.99
2024-04-08T04:55:25.512Z,99.99
2024-04-08T04:56:25.486Z,99.99
2024-04-08T04:57:25.480Z,99.99
2024-04-08T04:58:25.450Z,99.99
2024-04-08T04:59:25.445Z,99.99
2024-04-08T05:00:25.442Z,99.99
2024-04-08T05:01:25.439Z,99.99
2024-04-08T05:02:25.416Z,99.99
2024-04-08T05:03:25.396Z,99.99
2024-04-08T05:04:25.381Z,99.99
2024-04-08T05:05:25.364Z,99.99
2024-04-08T05:06:25.371Z,99.99
2024-04-08T05:07:25.330Z,99.99
2024-04-08T05:08:25.334Z,99.99
2024-04-08T05:09:25.302Z,99.99
2024-04-08T05:10:25.288Z,99.99
2024-04-08T05:11:25.284Z,99.99
2024-04-08T05:12:25.268Z,99.99
2024-04-08T05:13:25.247Z,99.99
2024-04-08T05:14:25.236Z,99.99
2024-04-08T05:15:25.220Z,99.99
2024-04-08T05:16:25.221Z,99.99
2024-04-08T05:17:25.242Z,99.99
2024-04-08T05:18:25.186Z,99.99
2024-04-08T05:19:25.168Z,99.99
2024-04-08T05:20:25.158Z,99.99
2024-04-08T05:21:25.137Z,99.99
2024-04-08T05:22:25.135Z,99.99
2024-04-08T05:23:25.113Z,99.99
2024-04-08T05:24:25.101Z,99.99
2024-04-08T05:25:25.086Z,99.99
2024-04-08T05:26:25.071Z,99.99
2024-04-08T05:27:25.058Z,99.99
2024-04-08T05:28:25.070Z,99.99
2024-04-08T05:29:25.033Z,99.99
2024-04-08T05:30:25.023Z,99.99
2024-04-08T05:31:25.008Z,99.99
2024-04-08T05:32:24.999Z,99.99
2024-04-08T05:33:25.188Z,99.99
2024-04-08T05:34:24.964Z,99.99
2024-04-08T05:35:24.948Z,99.99
2024-04-08T05:36:24.958Z,99.99
2024-04-08T05:37:24.923Z,99.99
2024-04-08T05:38:24.915Z,99.99
2024-04-08T05:39:25.247Z,99.99
2024-04-08T05:40:24.890Z,99.99
2024-04-08T05:41:24.869Z,99.99
2024-04-08T05:42:24.855Z,99.99
2024-04-08T05:43:24.844Z,99.99
2024-04-08T05:44:24.829Z,99.99
2024-04-08T05:45:24.816Z,99.99
2024-04-08T05:46:24.808Z,99.99
2024-04-08T05:47:24.835Z,99.99
2024-04-08T05:48:24.781Z,99.99
2024-04-08T05:49:24.773Z,99.99
2024-04-08T05:50:24.750Z,99.99
2024-04-08T05:51:24.733Z,99.88
2024-04-08T05:52:24.720Z,99.16
2024-04-08T05:53:24.720Z,97.64
2024-04-08T05:54:24.717Z,96.98
2024-04-08T05:55:24.732Z,96.07
2024-04-08T05:56:25.116Z,95.05
2024-04-08T05:57:24.656Z,95.66
2024-04-08T05:58:24.645Z,96.33
2024-04-08T05:59:24.630Z,95.51
2024-04-08T06:00:25.010Z,94.40
2024-04-08T06:01:24.596Z,93.48
2024-04-08T06:02:24.590Z,92.97
2024-04-08T06:03:24.576Z,93.13
2024-04-08T06:04:24.569Z,92.32
2024-04-08T06:05:24.564Z,92.63
2024-04-08T06:06:24.537Z,92.32
2024-04-08T06:07:24.512Z,91.77
2024-04-08T06:08:24.503Z,91.26
2024-04-08T06:09:24.489Z,91.32
2024-04-08T06:10:24.474Z,90.71
2024-04-08T06:11:24.504Z,90.11
2024-04-08T06:12:24.447Z,89.45
2024-04-08T06:13:24.433Z,88.64
2024-04-08T06:14:24.421Z,87.48
2024-04-08T06:15:24.457Z,86.88
2024-04-08T06:16:24.397Z,86.77
2024-04-08T06:17:24.383Z,85.93
2024-04-08T06:18:24.391Z,84.61
2024-04-08T06:19:24.653Z,84.91
2024-04-08T06:20:24.338Z,85.17
2024-04-08T06:21:24.343Z,85.07
2024-04-08T06:22:24.313Z,85.13
2024-04-08T06:23:24.299Z,82.90
2024-04-08T06:24:24.291Z,84.02
2024-04-08T06:25:24.280Z,83.68
2024-04-08T06:26:24.258Z,83.13
2024-04-08T06:27:24.249Z,82.42
2024-04-08T06:28:24.238Z,80.87
2024-04-08T06:29:24.222Z,79.72
2024-04-08T06:30:24.206Z,79.01
2024-04-08T06:31:24.208Z,78.71
2024-04-08T06:32:24.184Z,78.57
2024-04-08T06:33:25.648Z,78.77
2024-04-08T06:34:24.150Z,79.44
2024-04-08T06:35:24.143Z,77.39
2024-04-08T06:36:24.176Z,78.09
2024-04-08T06:37:24.133Z,78.16
2024-04-08T06:38:24.122Z,76.84
2024-04-08T06:39:24.087Z,76.75
2024-04-08T06:40:24.068Z,76.24
2024-04-08T06:41:24.058Z,75.40
2024-04-08T06:42:24.047Z,75.80
2024-04-08T06:43:24.028Z,75.40
2024-04-08T06:44:24.014Z,74.99
2024-04-08T06:45:24.163Z,76.67
2024-04-08T06:46:23.988Z,75.36
2024-04-08T06:47:23.986Z,73.21
2024-04-08T06:48:23.970Z,73.01
2024-04-08T06:49:23.945Z,73.52
2024-04-08T06:50:23.947Z,73.41
2024-04-08T06:51:23.920Z,72.67
2024-04-08T06:52:23.908Z,72.20
2024-04-08T06:53:23.917Z,72.64
2024-04-08T06:54:23.978Z,73.25
2024-04-08T06:55:23.875Z,73.85
2024-04-08T06:56:23.851Z,73.05
2024-04-08T06:57:23.851Z,73.72
2024-04-08T06:58:23.836Z,74.62
2024-04-08T06:59:23.813Z,73.78
2024-04-08T07:00:23.799Z,74.35
2024-04-08T07:01:23.785Z,72.71
2024-04-08T07:02:23.769Z,70.76
2024-04-08T07:03:23.759Z,69.65
2024-04-08T07:04:23.756Z,70.56
2024-04-08T07:05:23.736Z,69.85
2024-04-08T07:06:23.726Z,70.23
2024-04-08T07:07:23.704Z,68.95
2024-04-08T07:08:23.707Z,70.56
2024-04-08T07:09:23.709Z,70.59
2024-04-08T07:10:23.676Z,72.57
2024-04-08T07:11:23.660Z,69.96
2024-04-08T07:12:23.635Z,69.56
2024-04-08T07:13:23.632Z,70.26
2024-04-08T07:14:23.958Z,69.96
2024-04-08T07:15:23.596Z,70.96
2024-04-08T07:16:23.583Z,69.96
2024-04-08T07:17:23.568Z,70.19
2024-04-08T07:18:23.855Z,70.19
2024-04-08T07:19:23.654Z,69.69
2024-04-08T07:20:23.523Z,69.35
2024-04-08T07:21:23.513Z,68.95
2024-04-08T07:22:23.519Z,69.62
2024-04-08T07:23:23.494Z,69.22
2024-04-08T07:24:23.900Z,68.69
2024-04-08T07:25:23.490Z,68.65
2024-04-08T07:26:23.451Z,67.32
2024-04-08T07:27:23.745Z,65.39
2024-04-08T07:28:23.420Z,65.55
2024-04-08T07:29:23.407Z,65.92
2024-04-08T07:30:23.400Z,64.00
2024-04-08T07:31:23.379Z,64.56
2024-04-08T07:32:23.369Z,64.23
2024-04-08T07:33:23.422Z,61.73
2024-04-08T07:34:23.343Z,60.83
2024-04-08T07:35:25.001Z,62.70
2024-04-08T07:36:23.312Z,61.51
2024-04-08T07:37:23.714Z,60.88
2024-04-08T07:38:23.286Z,61.38
2024-04-08T07:39:27.918Z,61.25
2024-04-08T07:40:24.294Z,62.54
2024-04-08T07:41:23.387Z,61.02
2024-04-08T07:42:23.244Z,59.35
2024-04-08T07:43:23.224Z,59.68
2024-04-08T07:44:23.212Z,61.87
2024-04-08T07:45:23.196Z,60.31
2024-04-08T07:46:23.194Z,62.48
2024-04-08T07:47:23.214Z,60.58
2024-04-08T07:48:23.155Z,60.05
2024-04-08T07:49:23.141Z,59.82
2024-04-08T07:50:23.427Z,59.35
2024-04-08T07:51:23.114Z,59.85
2024-04-08T07:52:23.550Z,61.32
2024-04-08T07:53:23.085Z,60.26
2024-04-08T07:54:23.072Z,59.53
2024-04-08T07:55:23.060Z,59.41
2024-04-08T07:56:23.055Z,57.49
2024-04-08T07:57:23.055Z,58.88
2024-04-08T07:58:23.118Z,55.50
2024-04-08T07:59:23.013Z,57.52
2024-04-08T08:00:22.994Z,58.88
2024-04-08T08:01:22.988Z,56.49
2024-04-08T08:02:23.317Z,55.77
2024-04-08T08:03:22.952Z,56.27
2024-04-08T08:04:22.941Z,58.43
2024-04-08T08:05:22.929Z,55.74
2024-04-08T08:06:23.020Z,57.34
2024-04-08T08:07:22.902Z,57.51
2024-04-08T08:08:22.888Z,55.32
2024-04-08T08:09:22.876Z,56.78
2024-04-08T08:10:22.862Z,54.60
2024-04-08T08:11:22.889Z,53.48
2024-04-08T08:12:22.840Z,54.40
2024-04-08T08:13:22.836Z,55.27
2024-04-08T08:14:22.808Z,55.17
2024-04-08T08:15:22.799Z,52.39
2024-04-08T08:16:22.793Z,53.56
2024-04-08T08:17:23.119Z,54.55
2024-04-08T08:18:22.878Z,55.91
2024-04-08T08:19:22.747Z,54.79
2024-04-08T08:20:22.735Z,52.41
2024-04-08T08:21:22.723Z,52.54
2024-04-08T08:22:22.706Z,54.13
2024-04-08T08:23:22.707Z,53.80
2024-04-08T08:24:22.827Z,52.94
2024-04-08T08:25:22.664Z,53.45
2024-04-08T08:26:22.652Z,52.66
2024-04-08T08:27:22.670Z,54.47
2024-04-08T08:28:22.630Z,54.45
2024-04-08T08:29:22.742Z,53.92
2024-04-08T08:30:22.646Z,53.73
2024-04-08T08:31:22.647Z,52.31
2024-04-08T08:32:22.574Z,53.67
2024-04-08T08:33:22.567Z,52.66
2024-04-08T08:34:22.610Z,50.51
2024-04-08T08:35:22.537Z,51.37
2024-04-08T08:36:22.523Z,50.68
2024-04-08T08:37:22.512Z,51.87
2024-04-08T08:38:22.498Z,50.58
2024-04-08T08:39:22.494Z,50.90
2024-04-08T08:40:22.476Z,51.47
2024-04-08T08:41:22.465Z,49.59
2024-04-08T08:42:22.446Z,49.69
2024-04-08T08:43:22.431Z,50.16
2024-04-08T08:44:22.419Z,47.66
2024-04-08T08:45:22.434Z,50.04
2024-04-08T08:46:22.590Z,49.74
2024-04-08T08:47:22.591Z,49.44
2024-04-08T08:48:22.444Z,51.89
2024-04-08T08:49:22.351Z,48.83
2024-04-08T08:50:22.338Z,47.54
2024-04-08T08:51:22.322Z,48.73
2024-04-08T08:52:22.311Z,47.77
2024-04-08T08:53:22.299Z,50.04
2024-04-08T08:54:22.288Z,48.43
2024-04-08T08:55:22.286Z,46.23
2024-04-08T08:56:22.255Z,48.39
2024-04-08T08:57:22.244Z,45.82
2024-04-08T08:58:22.231Z,47.30
2024-04-08T08:59:22.218Z,47.10
2024-04-08T09:00:22.215Z,46.41
2024-04-08T09:01:22.214Z,45.42
2024-04-08T09:02:22.176Z,46.88
2024-04-08T09:03:22.175Z,46.76
2024-04-08T09:04:22.152Z,44.67
2024-04-08T09:05:22.142Z,43.66
2024-04-08T09:06:22.148Z,43.54
2024-04-08T09:07:22.137Z,47.85
2024-04-08T09:08:22.128Z,48.52
2024-04-08T09:09:22.168Z,46.65
2024-04-08T09:10:22.119Z,45.76
2024-04-08T09:11:22.209Z,44.68
2024-04-08T09:12:22.163Z,42.79
2024-04-08T09:13:22.120Z,39.86
2024-04-08T09:14:22.091Z,41.16
2024-04-08T09:15:22.011Z,41.08
2024-04-08T09:16:22.011Z,41.96
2024-04-08T09:17:22.346Z,44.53
2024-04-08T09:18:22.083Z,43.56
2024-04-08T09:19:22.228Z,43.66
2024-04-08T09:20:21.953Z,42.60
2024-04-08T09:21:21.959Z,43.78
2024-04-08T09:22:22.308Z,43.41
2024-04-08T09:23:21.921Z,44.18
2024-04-08T09:24:21.899Z,42.18
2024-04-08T09:25:21.886Z,41.57
2024-04-08T09:26:21.880Z,43.79
2024-04-08T09:27:21.869Z,42.81
2024-04-08T09:28:21.890Z,40.45
2024-04-08T09:29:21.840Z,39.78
2024-04-08T09:30:21.821Z,41.16
2024-04-08T09:31:21.815Z,39.87
2024-04-08T09:32:21.798Z,40.29
2024-04-08T09:33:21.842Z,41.45
2024-04-08T09:34:21.775Z,42.32
2024-04-08T09:35:21.759Z,40.43
2024-04-08T09:36:21.755Z,40.11
2024-04-08T09:37:21.735Z,38.36
2024-04-08T09:38:21.722Z,39.26
2024-04-08T09:39:21.710Z,39.87
2024-04-08T09:40:21.693Z,39.37
2024-04-08T09:41:21.688Z,40.66
2024-04-08T09:42:21.676Z,39.15
2024-04-08T09:43:21.656Z,37.38
2024-04-08T09:44:21.648Z,35.80
2024-04-08T09:45:21.744Z,36.10
2024-04-08T09:46:21.622Z,38.46
2024-04-08T09:47:21.610Z,36.97
2024-04-08T09:48:21.721Z,38.15
2024-04-08T09:49:24.580Z,37.82
2024-04-08T09:50:21.579Z,37.63
2024-04-08T09:51:21.563Z,36.36
2024-04-08T09:52:21.545Z,40.08
2024-04-08T09:53:21.538Z,35.64
2024-04-08T09:54:21.592Z,34.54
2024-04-08T09:55:21.535Z,36.29
2024-04-08T09:56:21.762Z,31.27
2024-04-08T09:57:21.491Z,29.88
2024-04-08T09:58:21.471Z,32.53
2024-04-08T09:59:21.456Z,32.04
2024-04-08T10:00:21.445Z,31.74
2024-04-08T10:01:21.440Z,30.78
2024-04-08T10:02:21.447Z,31.47
2024-04-08T10:03:21.408Z,33.43
2024-04-08T10:04:21.395Z,31.67
2024-04-08T10:05:21.448Z,33.90
2024-04-08T10:06:21.801Z,32.53
2024-04-08T10:07:21.371Z,32.35
2024-04-08T10:08:21.743Z,29.50
2024-04-08T10:09:21.325Z,31.87
2024-04-08T10:10:21.324Z,31.96
2024-04-08T10:11:21.331Z,30.00
2024-04-08T10:12:21.513Z,27.83
2024-04-08T10:13:21.276Z,27.63
2024-04-08T10:14:21.265Z,28.31
2024-04-08T10:15:21.384Z,27.63
2024-04-08T10:16:21.239Z,27.04
2024-04-08T10:17:21.227Z,25.78
2024-04-08T10:18:21.300Z,25.59
2024-04-08T10:19:21.228Z,25.10
2024-04-08T10:20:21.198Z,26.48
2024-04-08T10:21:21.183Z,28.15
2024-04-08T10:22:21.168Z,30.68
2024-04-08T10:23:21.151Z,30.18
2024-04-08T10:24:21.236Z,26.06
2024-04-08T10:25:23.314Z,27.94
2024-04-08T10:26:21.111Z,27.06
2024-04-08T10:27:21.099Z,24.90
2024-04-08T10:28:21.096Z,24.31
2024-04-08T10:29:21.070Z,27.35
2024-04-08T10:30:21.072Z,29.30
2024-04-08T10:31:21.063Z,27.34
2024-04-08T10:32:21.034Z,29.39
2024-04-08T10:33:21.103Z,30.87
2024-04-08T10:34:21.007Z,28.12
2024-04-08T10:35:20.995Z,28.61
2024-04-08T10:36:21.088Z,25.95
2024-04-08T10:37:22.650Z,25.56
2024-04-08T10:38:20.984Z,25.76
2024-04-08T10:39:20.948Z,27.63
2024-04-08T10:40:20.946Z,25.57
2024-04-08T10:41:20.928Z,26.96
2024-04-08T10:42:20.931Z,28.36
2024-04-08T10:43:20.892Z,28.49
2024-04-08T10:44:20.881Z,30.43
2024-04-08T10:45:20.975Z,28.47
2024-04-08T10:46:20.856Z,29.25
2024-04-08T10:47:20.841Z,29.25
2024-04-08T10:48:20.875Z,28.27
2024-04-08T10:49:20.839Z,29.16
2024-04-08T10:50:20.809Z,31.33
2024-04-08T10:51:20.822Z,31.74
2024-04-08T10:52:20.789Z,31.26
2024-04-08T10:53:20.809Z,32.36
2024-04-08T10:54:20.768Z,30.47
2024-04-08T10:55:20.891Z,29.79
2024-04-08T10:56:20.738Z,29.89
2024-04-08T10:57:20.725Z,30.08
2024-04-08T10:58:20.706Z,31.85
2024-04-08T10:59:20.711Z,30.47
2024-04-08T11:00:20.755Z,31.97
2024-04-08T11:01:20.682Z,29.02
2024-04-08T11:02:20.662Z,29.02
2024-04-08T11:03:20.681Z,31.46
2024-04-08T11:04:20.629Z,29.97
2024-04-08T11:05:20.667Z,28.49
2024-04-08T11:06:20.726Z,28.77
2024-04-08T11:07:21.040Z,28.17
2024-04-08T11:08:20.744Z,28.75
2024-04-08T11:09:20.654Z,28.05
2024-04-08T11:10:20.569Z,29.72
2024-04-08T11:11:20.712Z,29.11
2024-04-08T11:12:20.608Z,27.84
2024-04-08T11:13:20.514Z,29.41
2024-04-08T11:14:20.498Z,27.94
2024-04-08T11:15:20.668Z,27.83
2024-04-08T11:16:20.484Z,26.96
2024-04-08T11:17:20.517Z,28.92
2024-04-08T11:18:20.544Z,28.92
2024-04-08T11:19:20.434Z,28.61
2024-04-08T11:20:20.576Z,28.41
2024-04-08T11:21:20.470Z,28.22
2024-04-08T11:22:20.397Z,28.02
2024-04-08T11:23:20.387Z,28.13
2024-04-08T11:24:20.418Z,28.44
2024-04-08T11:25:20.395Z,28.36
2024-04-08T11:26:20.354Z,28.57
2024-04-08T11:27:20.382Z,31.61
2024-04-08T11:28:20.325Z,30.94
2024-04-08T11:29:20.317Z,30.55
2024-04-08T11:30:20.348Z,32.21
2024-04-08T11:31:20.285Z,30.53
2024-04-08T11:32:20.280Z,29.35
2024-04-08T11:33:20.346Z,28.37
2024-04-08T11:34:20.255Z,30.63
2024-04-08T11:35:20.233Z,32.57
2024-04-08T11:36:20.308Z,31.10
2024-04-08T11:37:20.220Z,31.19
2024-04-08T11:38:30.348Z,31.20
2024-04-08T11:39:21.230Z,30.24
2024-04-08T11:40:20.182Z,32.12
2024-04-08T11:41:20.180Z,30.65
2024-04-08T11:42:20.291Z,30.84
2024-04-08T11:43:20.177Z,30.36
2024-04-08T11:44:20.124Z,33.41
2024-04-08T11:45:20.300Z,33.00
2024-04-08T11:46:20.347Z,32.30
2024-04-08T11:47:20.096Z,32.48
2024-04-08T11:48:20.165Z,32.09
2024-04-08T11:49:20.537Z,32.46
2024-04-08T11:50:20.053Z,32.17
2024-04-08T11:51:20.132Z,33.34
2024-04-08T11:52:20.241Z,32.84
2024-04-08T11:53:20.008Z,32.06
2024-04-08T11:54:20.079Z,30.88
2024-04-08T11:55:20.001Z,34.01
2024-04-08T11:56:19.971Z,31.38
2024-04-08T11:57:19.992Z,30.22
2024-04-08T11:58:19.954Z,30.42
2024-04-08T11:59:19.932Z,33.07
2024-04-08T12:00:19.988Z,33.48
2024-04-08T12:01:19.944Z,34.05
2024-04-08T12:02:19.898Z,32.38
2024-04-08T12:03:20.003Z,32.66
2024-04-08T12:04:19.868Z,34.62
2024-04-08T12:05:19.859Z,32.17
2024-04-08T12:06:19.929Z,32.38
2024-04-08T12:07:19.830Z,32.68
2024-04-08T12:08:19.829Z,33.64
2024-04-08T12:09:19.827Z,34.01
2024-04-08T12:10:19.799Z,32.76
2024-04-08T12:11:19.822Z,33.82
2024-04-08T12:12:20.029Z,34.61
2024-04-08T12:13:19.786Z,31.65
2024-04-08T12:14:19.756Z,32.43
2024-04-08T12:15:19.759Z,30.46
2024-04-08T12:16:19.716Z,31.24
2024-04-08T12:17:19.697Z,30.94
2024-04-08T12:18:19.758Z,31.42
2024-04-08T12:19:19.677Z,33.28
2024-04-08T12:20:19.664Z,33.38
2024-04-08T12:21:19.695Z,31.13
2024-04-08T12:22:19.636Z,31.81
2024-04-08T12:23:19.628Z,29.97
2024-04-08T12:24:19.649Z,32.15
2024-04-08T12:25:19.609Z,31.38
2024-04-08T12:26:19.589Z,31.89
2024-04-08T12:27:19.590Z,32.20
2024-04-08T12:28:19.563Z,33.39
2024-04-08T12:29:19.564Z,33.10
2024-04-08T12:30:19.658Z,32.20
2024-04-08T12:31:19.529Z,32.59
2024-04-08T12:32:19.511Z,34.83
2024-04-08T12:33:19.634Z,33.46
2024-04-08T12:34:19.514Z,34.44
2024-04-08T12:35:19.479Z,35.33
2024-04-08T12:36:19.500Z,34.44
2024-04-08T12:37:19.443Z,33.56
2024-04-08T12:38:19.432Z,33.65
2024-04-08T12:39:19.581Z,32.57
2024-04-08T12:40:19.514Z,34.05
2024-04-08T12:41:19.392Z,33.65
2024-04-08T12:42:19.507Z,34.25
2024-04-08T12:43:19.396Z,35.05
2024-04-08T12:44:19.354Z,31.63
2024-04-08T12:45:19.465Z,31.82
2024-04-08T12:46:19.329Z,32.59
2024-04-08T12:47:19.330Z,33.18
2024-04-08T12:48:19.471Z,32.38
2024-04-08T12:49:19.368Z,34.56
2024-04-08T12:50:19.280Z,32.69
2024-04-08T12:51:19.431Z,33.49
2024-04-08T12:52:19.337Z,34.28